FDX791 KPWM-CYHZ
Flight info
| Callsign | FDX791 |
|---|---|
| Flight time | 1h 4m |
| Altitude | 33000 |
| Route | ALLEX FUNDY5 |
| Aircraft | B738/M-SDE2E3FGHIRWXY/LB1 |
Departure
| Time | 2026-05-07 16:30 |
|---|---|
| Airport | Portland International Jetport (KPWM) |
Arrival
| Time | 2026-05-07 17:34 |
|---|---|
| Airport | Halifax / Stanfield International Airport (CYHZ) |
| Time | Latitude | Longitude | Altitude | Speed | Heading |
|---|---|---|---|---|---|
| 2026-05-07 16:05 | 43.64790 | -70.31361 | 75 ft | 0 kts | 50° |
| 2026-05-07 16:18 | 43.64781 | -70.31378 | 67 ft | 4 kts | 67° |
| 2026-05-07 16:18 | 43.64779 | -70.31409 | 69 ft | 4 kts | 125° |
| 2026-05-07 16:18 | 43.64793 | -70.31429 | 68 ft | 0 kts | 140° |
| 2026-05-07 16:23 | 43.64786 | -70.31420 | 71 ft | 3 kts | 140° |
| 2026-05-07 16:23 | 43.64751 | -70.31381 | 72 ft | 10 kts | 140° |
| 2026-05-07 16:23 | 43.64682 | -70.31333 | 71 ft | 12 kts | 156° |
| 2026-05-07 16:23 | 43.64618 | -70.31263 | 80 ft | 12 kts | 130° |
| 2026-05-07 16:24 | 43.64600 | -70.31160 | 65 ft | 11 kts | 95° |
| 2026-05-07 16:24 | 43.64593 | -70.31050 | 66 ft | 12 kts | 95° |
| 2026-05-07 16:24 | 43.64586 | -70.30931 | 65 ft | 14 kts | 95° |
| 2026-05-07 16:24 | 43.64576 | -70.30792 | 61 ft | 15 kts | 96° |
| 2026-05-07 16:25 | 43.64565 | -70.30642 | 64 ft | 16 kts | 95° |
| 2026-05-07 16:25 | 43.64555 | -70.30474 | 58 ft | 20 kts | 88° |
| 2026-05-07 16:25 | 43.64585 | -70.30293 | 55 ft | 19 kts | 79° |
| 2026-05-07 16:25 | 43.64580 | -70.30114 | 55 ft | 18 kts | 95° |
| 2026-05-07 16:26 | 43.64570 | -70.29974 | 54 ft | 7 kts | 99° |
| 2026-05-07 16:26 | 43.64545 | -70.29926 | 54 ft | 6 kts | 149° |
| 2026-05-07 16:26 | 43.64515 | -70.29916 | 52 ft | 0 kts | 172° |
| 2026-05-07 16:28 | 43.64512 | -70.29915 | 54 ft | 3 kts | 172° |
| 2026-05-07 16:28 | 43.64475 | -70.29911 | 48 ft | 7 kts | 176° |
| 2026-05-07 16:28 | 43.64426 | -70.29919 | 54 ft | 8 kts | 211° |
| 2026-05-07 16:29 | 43.64410 | -70.29984 | 55 ft | 7 kts | 271° |
| 2026-05-07 16:29 | 43.64416 | -70.30102 | 52 ft | 32 kts | 275° |
| 2026-05-07 16:29 | 43.64458 | -70.30751 | 64 ft | 102 kts | 275° |
| 2026-05-07 16:29 | 43.64548 | -70.31994 | 128 ft | 151 kts | 277° |
| 2026-05-07 16:30 | 43.64664 | -70.33493 | 682 ft | 164 kts | 277° |
| 2026-05-07 16:30 | 43.64769 | -70.35000 | 1702 ft | 149 kts | 272° |
| 2026-05-07 16:30 | 43.64792 | -70.35950 | 2325 ft | 149 kts | 274° |
| 2026-05-07 16:30 | 43.64973 | -70.37992 | 2952 ft | 180 kts | 288° |
| 2026-05-07 16:31 | 43.65481 | -70.39017 | 2981 ft | 206 kts | 319° |
| 2026-05-07 16:31 | 43.66914 | -70.39704 | 3222 ft | 235 kts | 356° |
| 2026-05-07 16:31 | 43.68515 | -70.39079 | 3646 ft | 250 kts | 32° |
| 2026-05-07 16:31 | 43.69617 | -70.37217 | 4212 ft | 255 kts | 66° |
| 2026-05-07 16:32 | 43.70184 | -70.34888 | 4761 ft | 258 kts | 73° |
| 2026-05-07 16:32 | 43.70674 | -70.32510 | 5374 ft | 259 kts | 74° |
| 2026-05-07 16:32 | 43.71167 | -70.30089 | 5943 ft | 263 kts | 74° |
| 2026-05-07 16:32 | 43.71675 | -70.27644 | 6480 ft | 267 kts | 73° |
| 2026-05-07 16:33 | 43.72205 | -70.25158 | 6921 ft | 273 kts | 73° |
| 2026-05-07 16:33 | 43.72757 | -70.22620 | 7342 ft | 279 kts | 72° |
| 2026-05-07 16:33 | 43.73327 | -70.20037 | 7797 ft | 283 kts | 72° |
| 2026-05-07 16:33 | 43.73914 | -70.17407 | 8217 ft | 289 kts | 72° |
| 2026-05-07 16:34 | 43.74516 | -70.14733 | 8666 ft | 294 kts | 72° |
| 2026-05-07 16:34 | 43.75131 | -70.12015 | 9137 ft | 298 kts | 72° |
| 2026-05-07 16:34 | 43.75758 | -70.09254 | 9548 ft | 304 kts | 71° |
| 2026-05-07 16:34 | 43.76397 | -70.06444 | 9935 ft | 308 kts | 72° |
| 2026-05-07 16:35 | 43.77045 | -70.03598 | 10365 ft | 312 kts | 72° |
| 2026-05-07 16:35 | 43.77701 | -70.00716 | 10750 ft | 317 kts | 72° |
| 2026-05-07 16:35 | 43.78370 | -69.97778 | 11135 ft | 322 kts | 73° |
| 2026-05-07 16:35 | 43.79045 | -69.94810 | 11563 ft | 325 kts | 73° |
| 2026-05-07 16:36 | 43.79731 | -69.91792 | 11960 ft | 331 kts | 73° |
| 2026-05-07 16:36 | 43.80424 | -69.88736 | 12360 ft | 335 kts | 74° |
| 2026-05-07 16:36 | 43.81128 | -69.85634 | 12775 ft | 340 kts | 74° |
| 2026-05-07 16:36 | 43.81839 | -69.82491 | 13184 ft | 344 kts | 75° |
| 2026-05-07 16:37 | 43.82560 | -69.79305 | 13613 ft | 349 kts | 75° |
| 2026-05-07 16:37 | 43.83286 | -69.76087 | 13979 ft | 351 kts | 75° |
| 2026-05-07 16:37 | 43.84008 | -69.72889 | 14435 ft | 352 kts | 75° |
| 2026-05-07 16:37 | 43.84740 | -69.69642 | 14884 ft | 354 kts | 75° |
| 2026-05-07 16:38 | 43.85475 | -69.66375 | 15327 ft | 356 kts | 75° |
| 2026-05-07 16:38 | 43.86212 | -69.63096 | 15761 ft | 358 kts | 76° |
| 2026-05-07 16:38 | 43.86952 | -69.59793 | 16198 ft | 360 kts | 76° |
| 2026-05-07 16:38 | 43.87695 | -69.56474 | 16633 ft | 361 kts | 76° |
| 2026-05-07 16:39 | 43.88441 | -69.53138 | 17060 ft | 363 kts | 76° |
| 2026-05-07 16:39 | 43.89191 | -69.49782 | 17475 ft | 365 kts | 76° |
| 2026-05-07 16:39 | 43.89942 | -69.46410 | 17880 ft | 369 kts | 76° |
| 2026-05-07 16:39 | 43.90706 | -69.42972 | 18140 ft | 375 kts | 77° |
| 2026-05-07 16:40 | 43.91477 | -69.39500 | 18496 ft | 376 kts | 77° |
| 2026-05-07 16:40 | 43.92247 | -69.36031 | 18862 ft | 377 kts | 76° |
| 2026-05-07 16:40 | 43.93020 | -69.32541 | 19194 ft | 380 kts | 76° |
| 2026-05-07 16:40 | 43.93793 | -69.29042 | 19588 ft | 377 kts | 76° |
| 2026-05-07 16:41 | 43.94561 | -69.25571 | 20020 ft | 376 kts | 76° |
| 2026-05-07 16:41 | 43.95331 | -69.22080 | 20282 ft | 381 kts | 76° |
| 2026-05-07 16:41 | 43.96106 | -69.18555 | 20561 ft | 384 kts | 76° |
| 2026-05-07 16:41 | 43.96890 | -69.14979 | 20841 ft | 390 kts | 75° |
| 2026-05-07 16:42 | 43.97692 | -69.11314 | 20893 ft | 405 kts | 75° |
| 2026-05-07 16:42 | 43.98529 | -69.07480 | 20982 ft | 424 kts | 75° |
| 2026-05-07 16:42 | 43.99399 | -69.03486 | 21180 ft | 439 kts | 75° |
| 2026-05-07 16:42 | 44.00293 | -68.99384 | 21627 ft | 447 kts | 75° |
| 2026-05-07 16:43 | 44.01198 | -68.95235 | 22176 ft | 451 kts | 75° |
| 2026-05-07 16:43 | 44.02109 | -68.91048 | 22760 ft | 454 kts | 75° |
| 2026-05-07 16:43 | 44.03026 | -68.86828 | 23307 ft | 458 kts | 75° |
| 2026-05-07 16:43 | 44.03947 | -68.82573 | 23688 ft | 463 kts | 75° |
| 2026-05-07 16:44 | 44.04876 | -68.78277 | 24155 ft | 466 kts | 75° |
| 2026-05-07 16:44 | 44.05811 | -68.73935 | 24503 ft | 472 kts | 75° |
| 2026-05-07 16:44 | 44.06759 | -68.69524 | 24821 ft | 479 kts | 75° |
| 2026-05-07 16:44 | 44.07717 | -68.65053 | 25173 ft | 485 kts | 75° |
| 2026-05-07 16:45 | 44.08684 | -68.60536 | 25533 ft | 491 kts | 75° |
| 2026-05-07 16:45 | 44.09661 | -68.55960 | 25869 ft | 496 kts | 75° |
| 2026-05-07 16:45 | 44.10649 | -68.51327 | 26235 ft | 502 kts | 75° |
| 2026-05-07 16:45 | 44.11643 | -68.46654 | 26689 ft | 504 kts | 75° |
| 2026-05-07 16:46 | 44.12640 | -68.41959 | 27065 ft | 508 kts | 75° |
| 2026-05-07 16:46 | 44.13644 | -68.37215 | 27356 ft | 515 kts | 75° |
| 2026-05-07 16:46 | 44.14659 | -68.32410 | 27559 ft | 521 kts | 75° |
| 2026-05-07 16:46 | 44.15686 | -68.27534 | 27842 ft | 527 kts | 75° |
| 2026-05-07 16:47 | 44.16720 | -68.22613 | 28177 ft | 532 kts | 75° |
| 2026-05-07 16:47 | 44.17762 | -68.17649 | 28499 ft | 536 kts | 75° |
| 2026-05-07 16:47 | 44.18809 | -68.12645 | 28805 ft | 541 kts | 75° |
| 2026-05-07 16:47 | 44.19862 | -68.07600 | 29098 ft | 546 kts | 75° |
| 2026-05-07 16:48 | 44.20923 | -68.02504 | 29511 ft | 548 kts | 75° |
| 2026-05-07 16:48 | 44.21975 | -67.97439 | 30219 ft | 540 kts | 75° |
| 2026-05-07 16:48 | 44.23015 | -67.92424 | 30764 ft | 536 kts | 75° |
| 2026-05-07 16:48 | 44.24049 | -67.87422 | 30989 ft | 539 kts | 75° |
| 2026-05-07 16:49 | 44.25093 | -67.82355 | 31075 ft | 548 kts | 75° |
| 2026-05-07 16:49 | 44.26148 | -67.77217 | 31272 ft | 552 kts | 75° |
| 2026-05-07 16:49 | 44.27203 | -67.72068 | 31673 ft | 551 kts | 76° |
| 2026-05-07 16:49 | 44.28252 | -67.66941 | 32122 ft | 549 kts | 76° |
| 2026-05-07 16:50 | 44.29299 | -67.61812 | 32488 ft | 549 kts | 76° |
| 2026-05-07 16:50 | 44.30346 | -67.56670 | 32759 ft | 552 kts | 76° |
| 2026-05-07 16:50 | 44.31397 | -67.51491 | 32769 ft | 557 kts | 76° |
| 2026-05-07 16:51 | 44.33482 | -67.41184 | 32731 ft | 545 kts | 76° |
| 2026-05-07 16:51 | 44.35530 | -67.31004 | 32738 ft | 546 kts | 76° |
| 2026-05-07 16:52 | 44.37586 | -67.20718 | 32755 ft | 552 kts | 76° |
| 2026-05-07 16:52 | 44.39639 | -67.10309 | 32752 ft | 558 kts | 76° |
| 2026-05-07 16:53 | 44.41718 | -66.99904 | 32725 ft | 551 kts | 76° |
| 2026-05-07 16:53 | 44.43611 | -66.89577 | 32676 ft | 548 kts | 79° |
| 2026-05-07 16:54 | 44.45340 | -66.79180 | 32607 ft | 550 kts | 79° |
| 2026-05-07 16:54 | 44.46206 | -66.73942 | 32133 ft | 552 kts | 79° |
| 2026-05-07 16:54 | 44.47079 | -66.68721 | 31756 ft | 548 kts | 79° |
| 2026-05-07 16:54 | 44.47939 | -66.63615 | 31384 ft | 544 kts | 79° |
| 2026-05-07 16:55 | 44.48820 | -66.58413 | 30988 ft | 541 kts | 79° |
| 2026-05-07 16:55 | 44.49686 | -66.53303 | 30614 ft | 537 kts | 79° |
| 2026-05-07 16:55 | 44.50572 | -66.48241 | 30364 ft | 532 kts | 77° |
| 2026-05-07 16:55 | 44.51538 | -66.43274 | 30120 ft | 525 kts | 76° |
| 2026-05-07 16:56 | 44.52547 | -66.38392 | 29872 ft | 518 kts | 76° |
| 2026-05-07 16:56 | 44.53560 | -66.33578 | 29592 ft | 511 kts | 76° |
| 2026-05-07 16:56 | 44.55513 | -66.24192 | 28984 ft | 498 kts | 76° |
| 2026-05-07 16:57 | 44.56458 | -66.19540 | 28609 ft | 494 kts | 77° |
| 2026-05-07 16:57 | 44.57386 | -66.14921 | 28216 ft | 490 kts | 77° |
| 2026-05-07 16:57 | 44.58299 | -66.10337 | 27833 ft | 486 kts | 77° |
| 2026-05-07 16:57 | 44.59202 | -66.05783 | 27444 ft | 482 kts | 78° |
| 2026-05-07 16:58 | 44.60095 | -66.01265 | 27064 ft | 478 kts | 78° |
| 2026-05-07 16:58 | 44.60979 | -65.96788 | 26687 ft | 474 kts | 78° |
| 2026-05-07 16:58 | 44.61865 | -65.92289 | 26250 ft | 471 kts | 79° |
| 2026-05-07 16:58 | 44.62720 | -65.87936 | 25925 ft | 466 kts | 79° |
| 2026-05-07 16:59 | 44.63578 | -65.83560 | 25556 ft | 462 kts | 80° |
| 2026-05-07 16:59 | 44.64422 | -65.79229 | 25186 ft | 459 kts | 80° |
| 2026-05-07 16:59 | 44.65261 | -65.74922 | 24812 ft | 455 kts | 80° |
| 2026-05-07 16:59 | 44.66093 | -65.70650 | 24442 ft | 452 kts | 81° |
| 2026-05-07 17:00 | 44.66920 | -65.66403 | 24078 ft | 449 kts | 81° |
| 2026-05-07 17:00 | 44.67737 | -65.62192 | 23711 ft | 446 kts | 81° |
| 2026-05-07 17:00 | 44.68549 | -65.58006 | 23350 ft | 442 kts | 82° |
| 2026-05-07 17:00 | 44.69281 | -65.54223 | 22962 ft | 439 kts | 82° |
| 2026-05-07 17:01 | 44.70077 | -65.50099 | 22557 ft | 436 kts | 82° |
| 2026-05-07 17:01 | 44.70865 | -65.46010 | 22166 ft | 432 kts | 82° |
| 2026-05-07 17:01 | 44.71646 | -65.41952 | 21771 ft | 427 kts | 82° |
| 2026-05-07 17:01 | 44.72415 | -65.37947 | 21451 ft | 422 kts | 82° |
| 2026-05-07 17:02 | 44.73177 | -65.33976 | 21087 ft | 419 kts | 82° |
| 2026-05-07 17:02 | 44.73930 | -65.30035 | 20734 ft | 415 kts | 82° |
| 2026-05-07 17:02 | 44.74673 | -65.26123 | 20381 ft | 412 kts | 82° |
| 2026-05-07 17:02 | 44.75408 | -65.22247 | 20034 ft | 409 kts | 82° |
| 2026-05-07 17:03 | 44.76138 | -65.18386 | 19688 ft | 407 kts | 82° |
| 2026-05-07 17:03 | 44.76864 | -65.14554 | 19348 ft | 404 kts | 82° |
| 2026-05-07 17:03 | 44.77586 | -65.10737 | 18995 ft | 402 kts | 82° |
| 2026-05-07 17:03 | 44.78303 | -65.06938 | 18643 ft | 400 kts | 82° |
| 2026-05-07 17:04 | 44.79015 | -65.03161 | 18305 ft | 398 kts | 82° |
| 2026-05-07 17:04 | 44.79721 | -64.99402 | 17966 ft | 396 kts | 82° |
| 2026-05-07 17:04 | 44.80422 | -64.95665 | 17585 ft | 394 kts | 82° |
| 2026-05-07 17:04 | 44.81111 | -64.91988 | 17395 ft | 385 kts | 82° |
| 2026-05-07 17:05 | 44.81788 | -64.88363 | 17130 ft | 379 kts | 82° |
| 2026-05-07 17:05 | 44.82458 | -64.84788 | 16809 ft | 377 kts | 82° |
| 2026-05-07 17:05 | 44.83037 | -64.81713 | 16524 ft | 375 kts | 82° |
| 2026-05-07 17:05 | 44.83669 | -64.78329 | 16213 ft | 373 kts | 82° |
| 2026-05-07 17:06 | 44.84323 | -64.74804 | 15891 ft | 371 kts | 81° |
| 2026-05-07 17:06 | 44.84973 | -64.71294 | 15565 ft | 369 kts | 81° |
| 2026-05-07 17:06 | 44.85617 | -64.67803 | 15244 ft | 368 kts | 81° |
| 2026-05-07 17:06 | 44.86258 | -64.64323 | 14919 ft | 366 kts | 81° |
| 2026-05-07 17:07 | 44.86896 | -64.60852 | 14594 ft | 365 kts | 81° |
| 2026-05-07 17:07 | 44.87532 | -64.57389 | 14269 ft | 364 kts | 81° |
| 2026-05-07 17:07 | 44.88164 | -64.53935 | 13955 ft | 364 kts | 81° |
| 2026-05-07 17:07 | 44.88797 | -64.50476 | 13591 ft | 365 kts | 80° |
| 2026-05-07 17:08 | 44.89429 | -64.47007 | 13229 ft | 365 kts | 80° |
| 2026-05-07 17:08 | 44.90061 | -64.43545 | 12883 ft | 364 kts | 80° |
| 2026-05-07 17:08 | 44.90689 | -64.40102 | 12520 ft | 361 kts | 80° |
| 2026-05-07 17:08 | 44.91100 | -64.37843 | 12366 ft | 357 kts | 80° |
| 2026-05-07 17:09 | 44.91921 | -64.33325 | 11941 ft | 354 kts | 79° |
| 2026-05-07 17:09 | 44.92324 | -64.31097 | 11704 ft | 352 kts | 79° |
| 2026-05-07 17:09 | 44.92928 | -64.27759 | 11401 ft | 350 kts | 79° |
| 2026-05-07 17:09 | 44.93525 | -64.24447 | 11082 ft | 348 kts | 79° |
| 2026-05-07 17:10 | 44.94120 | -64.21144 | 10764 ft | 346 kts | 79° |
| 2026-05-07 17:10 | 44.94709 | -64.17866 | 10452 ft | 344 kts | 78° |
| 2026-05-07 17:10 | 44.95296 | -64.14597 | 10177 ft | 341 kts | 78° |
| 2026-05-07 17:10 | 44.95871 | -64.11386 | 10025 ft | 334 kts | 78° |
| 2026-05-07 17:11 | 44.96438 | -64.08218 | 9779 ft | 332 kts | 78° |
| 2026-05-07 17:11 | 44.97001 | -64.05066 | 9473 ft | 331 kts | 78° |
| 2026-05-07 17:11 | 44.97561 | -64.01922 | 9167 ft | 329 kts | 78° |
| 2026-05-07 17:11 | 44.98077 | -63.99016 | 8873 ft | 328 kts | 78° |
| 2026-05-07 17:12 | 44.98580 | -63.96169 | 8609 ft | 325 kts | 78° |
| 2026-05-07 17:12 | 44.99126 | -63.93086 | 8301 ft | 322 kts | 78° |
| 2026-05-07 17:12 | 44.99664 | -63.90040 | 8030 ft | 317 kts | 79° |
| 2026-05-07 17:12 | 45.00192 | -63.87042 | 7773 ft | 312 kts | 79° |
| 2026-05-07 17:13 | 45.00714 | -63.84088 | 7514 ft | 309 kts | 78° |
| 2026-05-07 17:13 | 45.01233 | -63.81149 | 7264 ft | 309 kts | 78° |
| 2026-05-07 17:13 | 45.01756 | -63.78188 | 6962 ft | 313 kts | 79° |
| 2026-05-07 17:13 | 45.02282 | -63.75181 | 6689 ft | 316 kts | 78° |
| 2026-05-07 17:14 | 45.02818 | -63.72155 | 6388 ft | 319 kts | 78° |
| 2026-05-07 17:14 | 45.03350 | -63.69110 | 6076 ft | 319 kts | 78° |
| 2026-05-07 17:14 | 45.03882 | -63.66078 | 5789 ft | 318 kts | 78° |
| 2026-05-07 17:14 | 45.04417 | -63.63051 | 5421 ft | 314 kts | 77° |
| 2026-05-07 17:15 | 45.04974 | -63.60155 | 5223 ft | 299 kts | 78° |
| 2026-05-07 17:15 | 45.05438 | -63.57343 | 5024 ft | 286 kts | 79° |
| 2026-05-07 17:15 | 45.05881 | -63.54679 | 4887 ft | 271 kts | 78° |
| 2026-05-07 17:15 | 45.06316 | -63.52143 | 4821 ft | 260 kts | 79° |
| 2026-05-07 17:16 | 45.06735 | -63.49691 | 4697 ft | 252 kts | 79° |
| 2026-05-07 17:16 | 45.07034 | -63.47310 | 4570 ft | 239 kts | 98° |
| 2026-05-07 17:16 | 45.06569 | -63.45218 | 4449 ft | 213 kts | 127° |
| 2026-05-07 17:16 | 45.05782 | -63.43483 | 4248 ft | 207 kts | 134° |
| 2026-05-07 17:17 | 45.04950 | -63.41839 | 4070 ft | 206 kts | 134° |
| 2026-05-07 17:17 | 45.04117 | -63.40201 | 4018 ft | 205 kts | 135° |
| 2026-05-07 17:17 | 45.03076 | -63.38993 | 3977 ft | 185 kts | 167° |
| 2026-05-07 17:17 | 45.01809 | -63.38637 | 3490 ft | 184 kts | 188° |
| 2026-05-07 17:18 | 45.00678 | -63.39076 | 3275 ft | 155 kts | 215° |
| 2026-05-07 17:18 | 44.99773 | -63.39804 | 3061 ft | 144 kts | 210° |
| 2026-05-07 17:18 | 44.98902 | -63.40480 | 2869 ft | 142 kts | 215° |
| 2026-05-07 17:18 | 44.98117 | -63.41386 | 2712 ft | 150 kts | 223° |
| 2026-05-07 17:19 | 44.97248 | -63.42181 | 2495 ft | 146 kts | 213° |
| 2026-05-07 17:19 | 44.96422 | -63.42947 | 2289 ft | 140 kts | 220° |
| 2026-05-07 17:19 | 44.95630 | -63.43725 | 2116 ft | 137 kts | 210° |
| 2026-05-07 17:19 | 44.94843 | -63.44376 | 1939 ft | 127 kts | 231° |
| 2026-05-07 17:20 | 44.94222 | -63.45234 | 1752 ft | 127 kts | 212° |
| 2026-05-07 17:20 | 44.93456 | -63.45872 | 1578 ft | 129 kts | 217° |
| 2026-05-07 17:20 | 44.92716 | -63.46628 | 1426 ft | 136 kts | 216° |
| 2026-05-07 17:20 | 44.91935 | -63.47431 | 1213 ft | 139 kts | 216° |
| 2026-05-07 17:21 | 44.91128 | -63.48188 | 1034 ft | 140 kts | 210° |
| 2026-05-07 17:21 | 44.90306 | -63.49015 | 887 ft | 148 kts | 214° |
| 2026-05-07 17:21 | 44.89506 | -63.49933 | 754 ft | 148 kts | 210° |
| 2026-05-07 17:21 | 44.88575 | -63.50739 | 675 ft | 170 kts | 214° |
| 2026-05-07 17:22 | 44.87667 | -63.51780 | 1223 ft | 169 kts | 214° |
| 2026-05-07 17:22 | 44.86788 | -63.52679 | 2178 ft | 148 kts | 223° |
| 2026-05-07 17:22 | 44.86077 | -63.53755 | 2741 ft | 151 kts | 227° |
| 2026-05-07 17:22 | 44.85122 | -63.54591 | 2965 ft | 176 kts | 209° |
| 2026-05-07 17:23 | 44.83945 | -63.55357 | 2970 ft | 195 kts | 209° |
| 2026-05-07 17:23 | 44.82686 | -63.56186 | 2971 ft | 205 kts | 210° |
| 2026-05-07 17:23 | 44.81423 | -63.57177 | 2958 ft | 210 kts | 226° |
| 2026-05-07 17:23 | 44.80797 | -63.59015 | 2981 ft | 217 kts | 258° |
| 2026-05-07 17:24 | 44.80727 | -63.61181 | 2966 ft | 231 kts | 275° |
| 2026-05-07 17:24 | 44.81392 | -63.63371 | 2995 ft | 260 kts | 302° |
| 2026-05-07 17:24 | 44.82804 | -63.65013 | 2965 ft | 267 kts | 330° |
| 2026-05-07 17:24 | 44.84592 | -63.65453 | 2970 ft | 264 kts | 3° |
| 2026-05-07 17:25 | 44.86291 | -63.64545 | 2968 ft | 260 kts | 26° |
| 2026-05-07 17:25 | 44.87816 | -63.63253 | 2964 ft | 251 kts | 27° |
| 2026-05-07 17:25 | 44.89269 | -63.61984 | 2965 ft | 242 kts | 30° |
| 2026-05-07 17:25 | 44.90668 | -63.60740 | 2988 ft | 244 kts | 27° |
| 2026-05-07 17:26 | 44.92182 | -63.59566 | 2997 ft | 252 kts | 24° |
| 2026-05-07 17:26 | 44.93736 | -63.58277 | 2973 ft | 258 kts | 28° |
| 2026-05-07 17:26 | 44.95216 | -63.56836 | 2981 ft | 258 kts | 30° |
| 2026-05-07 17:26 | 44.96728 | -63.55495 | 2972 ft | 258 kts | 30° |
| 2026-05-07 17:27 | 44.98248 | -63.54161 | 2965 ft | 256 kts | 26° |
| 2026-05-07 17:27 | 44.99765 | -63.52927 | 2938 ft | 251 kts | 24° |
| 2026-05-07 17:27 | 45.01260 | -63.51707 | 2977 ft | 245 kts | 28° |
| 2026-05-07 17:27 | 45.02676 | -63.50497 | 2953 ft | 230 kts | 27° |
| 2026-05-07 17:28 | 45.04014 | -63.49353 | 2964 ft | 220 kts | 27° |
| 2026-05-07 17:28 | 45.05296 | -63.48219 | 2969 ft | 217 kts | 36° |
| 2026-05-07 17:28 | 45.06134 | -63.46450 | 2995 ft | 223 kts | 79° |
| 2026-05-07 17:28 | 45.06059 | -63.44297 | 2989 ft | 219 kts | 121° |
| 2026-05-07 17:29 | 45.05274 | -63.42503 | 2989 ft | 214 kts | 132° |
| 2026-05-07 17:29 | 45.04420 | -63.40799 | 2979 ft | 210 kts | 132° |
| 2026-05-07 17:29 | 45.03518 | -63.39225 | 2961 ft | 199 kts | 150° |
| 2026-05-07 17:29 | 45.02309 | -63.38576 | 2992 ft | 182 kts | 183° |
| 2026-05-07 17:30 | 45.01063 | -63.38745 | 2962 ft | 178 kts | 206° |
| 2026-05-07 17:30 | 44.99954 | -63.39392 | 2997 ft | 170 kts | 210° |
| 2026-05-07 17:30 | 44.98978 | -63.40297 | 2906 ft | 167 kts | 224° |
| 2026-05-07 17:30 | 44.98112 | -63.41443 | 2696 ft | 172 kts | 220° |
| 2026-05-07 17:31 | 44.97116 | -63.42354 | 2479 ft | 168 kts | 218° |
| 2026-05-07 17:31 | 44.96157 | -63.43289 | 2177 ft | 167 kts | 213° |
| 2026-05-07 17:31 | 44.95217 | -63.44112 | 2009 ft | 154 kts | 217° |
| 2026-05-07 17:31 | 44.94390 | -63.45022 | 1789 ft | 147 kts | 218° |
| 2026-05-07 17:32 | 44.93562 | -63.45824 | 1592 ft | 143 kts | 213° |
| 2026-05-07 17:32 | 44.92742 | -63.46593 | 1413 ft | 140 kts | 217° |
| 2026-05-07 17:32 | 44.91960 | -63.47384 | 1208 ft | 141 kts | 213° |
| 2026-05-07 17:32 | 44.91413 | -63.47923 | 1154 ft | 143 kts | 215° |
| 2026-05-07 17:33 | 44.90298 | -63.49048 | 870 ft | 148 kts | 211° |
| 2026-05-07 17:33 | 44.89446 | -63.49926 | 627 ft | 162 kts | 217° |
| 2026-05-07 17:33 | 44.88537 | -63.50812 | 523 ft | 155 kts | 206° |
| 2026-05-07 17:33 | 44.87702 | -63.51597 | 450 ft | 124 kts | 205° |
| 2026-05-07 17:34 | 44.87175 | -63.52117 | 448 ft | 61 kts | 216° |
| 2026-05-07 17:34 | 44.87003 | -63.52291 | 449 ft | 0 kts | 217° |
| 2026-05-07 17:34 | 44.87000 | -63.52295 | 449 ft | 4 kts | 217° |
| 2026-05-07 17:34 | 44.86943 | -63.52356 | 449 ft | 12 kts | 216° |
| 2026-05-07 17:35 | 44.86864 | -63.52431 | 448 ft | 18 kts | 215° |
| 2026-05-07 17:35 | 44.86758 | -63.52535 | 448 ft | 18 kts | 214° |
| 2026-05-07 17:35 | 44.86656 | -63.52638 | 447 ft | 18 kts | 218° |
| 2026-05-07 17:35 | 44.86601 | -63.52745 | 447 ft | 10 kts | 270° |
| 2026-05-07 17:36 | 44.86625 | -63.52819 | 449 ft | 8 kts | 303° |
| 2026-05-07 17:36 | 44.86635 | -63.52840 | 450 ft | 0 kts | 304° |
| 2026-05-07 17:37 | 44.86637 | -63.52845 | 450 ft | 1 kts | 304° |
| 2026-05-07 17:37 | 44.86643 | -63.52857 | 450 ft | 3 kts | 304° |
| 2026-05-07 17:37 | 44.86663 | -63.52898 | 451 ft | 5 kts | 304° |
| 2026-05-07 17:37 | 44.86682 | -63.52939 | 450 ft | 5 kts | 304° |
| 2026-05-07 17:38 | 44.86701 | -63.52981 | 451 ft | 5 kts | 301° |
| 2026-05-07 17:38 | 44.86729 | -63.53040 | 451 ft | 9 kts | 307° |
| 2026-05-07 17:38 | 44.86769 | -63.53109 | 450 ft | 9 kts | 310° |
| 2026-05-07 17:38 | 44.86806 | -63.53171 | 450 ft | 5 kts | 305° |
| 2026-05-07 17:39 | 44.86810 | -63.53212 | 451 ft | 4 kts | 258° |
| 2026-05-07 17:39 | 44.86793 | -63.53244 | 451 ft | 4 kts | 223° |
| 2026-05-07 17:39 | 44.86774 | -63.53268 | 450 ft | 0 kts | 220° |
| 2026-05-07 17:40 | 44.86772 | -63.53270 | 451 ft | 2 kts | 220° |
| 2026-05-07 17:40 | 44.86763 | -63.53281 | 450 ft | 2 kts | 220° |
| 2026-05-07 17:40 | 44.86751 | -63.53294 | 451 ft | 2 kts | 219° |
| 2026-05-07 17:40 | 44.86751 | -63.53295 | 451 ft | 0 kts | 219° |